createdAt,value
2023-12-05T00:02:25.150Z,100647.69
2023-12-05T00:04:52.703Z,100655.72
2023-12-05T00:07:24.183Z,100658.44
2023-12-05T00:09:51.968Z,100646.91
2023-12-05T00:12:19.532Z,100635.69
2023-12-05T00:14:47.176Z,100644.69
2023-12-05T00:17:14.892Z,100635.88
2023-12-05T00:19:42.634Z,100641.16
2023-12-05T00:22:10.207Z,100649.31
2023-12-05T00:24:39.311Z,100636.03
2023-12-05T00:27:06.924Z,100633.09
2023-12-05T00:29:34.436Z,100636.81
2023-12-05T00:32:01.979Z,100635.69
2023-12-05T00:34:29.508Z,100642.63
2023-12-05T00:36:57.208Z,100635.88
2023-12-05T00:39:24.734Z,100631.63
2023-12-05T00:41:53.677Z,100631.88
2023-12-05T00:44:21.220Z,100642.63
2023-12-05T00:46:48.804Z,100634.84
2023-12-05T00:49:16.429Z,100636.66
2023-12-05T00:51:44.019Z,100632.16
2023-12-05T00:54:13.161Z,100638.34
2023-12-05T00:56:41.974Z,100641.50
2023-12-05T00:59:10.767Z,100638.19
2023-12-05T01:01:38.295Z,100636.88
2023-12-05T01:04:06.324Z,100634.38
2023-12-05T01:06:33.990Z,100630.03
2023-12-05T01:09:01.676Z,100628.84
2023-12-05T01:11:29.343Z,100636.81
2023-12-05T01:13:57.461Z,100624.16
2023-12-05T01:16:26.386Z,100628.63
2023-12-05T01:18:53.942Z,100625.31
2023-12-05T01:21:21.556Z,100626.50
2023-12-05T01:23:49.071Z,100617.72
2023-12-05T01:26:16.565Z,100637.47
2023-12-05T01:28:44.047Z,100630.22
2023-12-05T01:31:11.552Z,100627.09
2023-12-05T01:33:40.427Z,100633.53
2023-12-05T01:36:11.232Z,100624.94
2023-12-05T01:38:38.876Z,100619.81
2023-12-05T01:41:06.398Z,100616.34
2023-12-05T01:43:33.840Z,100619.25
2023-12-05T01:46:02.269Z,100611.78
2023-12-05T01:48:31.899Z,100615.09
2023-12-05T01:51:02.231Z,100618.34
2023-12-05T01:53:30.304Z,100611.69
2023-12-05T01:55:57.966Z,100606.47
2023-12-05T01:58:25.681Z,100609.25
2023-12-05T02:00:53.604Z,100604.91
2023-12-05T02:03:21.342Z,100605.44
2023-12-05T02:05:50.977Z,100589.03
2023-12-05T02:08:23.160Z,100595.84
2023-12-05T02:10:51.062Z,100593.72
2023-12-05T02:13:18.702Z,100587.81
2023-12-05T02:15:48.739Z,100581.00
2023-12-05T02:18:19.643Z,100578.78
2023-12-05T02:20:52.563Z,100577.84
2023-12-05T02:24:06.936Z,100579.22
2023-12-05T02:26:43.803Z,100566.94
2023-12-05T02:29:12.769Z,100576.06
2023-12-05T02:31:40.261Z,100563.34
2023-12-05T02:34:08.317Z,100555.72
2023-12-05T02:36:43.044Z,100551.94
2023-12-05T02:39:17.910Z,100556.69
2023-12-05T02:41:50.421Z,100551.31
2023-12-05T02:44:20.520Z,100554.75
2023-12-05T02:46:50.667Z,100558.66
2023-12-05T02:49:18.790Z,100551.50
2023-12-05T02:51:46.390Z,100550.09
2023-12-05T02:54:14.020Z,100550.97
2023-12-05T02:56:41.591Z,100550.50
2023-12-05T02:59:08.996Z,100552.47
2023-12-05T03:01:41.295Z,100552.16
2023-12-05T03:04:09.042Z,100546.19
2023-12-05T03:06:36.771Z,100547.91
2023-12-05T03:09:04.790Z,100539.97
2023-12-05T03:11:32.767Z,100542.97
2023-12-05T03:14:00.690Z,100540.31
2023-12-05T03:16:28.313Z,100538.63
2023-12-05T03:18:57.835Z,100545.75
2023-12-05T03:21:25.805Z,100531.84
2023-12-05T03:23:53.526Z,100540.09
2023-12-05T03:26:21.540Z,100532.00
2023-12-05T03:28:49.789Z,100535.75
2023-12-05T03:31:17.513Z,100535.47
2023-12-05T03:33:45.553Z,100540.22
2023-12-05T03:36:14.896Z,100534.56
2023-12-05T03:38:42.711Z,100539.09
2023-12-05T03:41:10.791Z,100543.84
2023-12-05T03:43:38.326Z,100545.75
2023-12-05T03:46:06.096Z,100540.41
2023-12-05T03:48:33.768Z,100540.91
2023-12-05T03:51:01.318Z,100543.19
2023-12-05T03:53:30.180Z,100550.25
2023-12-05T03:55:57.620Z,100546.69
2023-12-05T03:58:25.383Z,100547.72
2023-12-05T04:00:52.933Z,100550.44
2023-12-05T04:03:21.487Z,100549.00
2023-12-05T04:05:49.063Z,100546.63
2023-12-05T04:08:16.654Z,100552.00
2023-12-05T04:10:45.438Z,100547.75
2023-12-05T04:13:12.944Z,100537.50
2023-12-05T04:15:41.732Z,100531.72
2023-12-05T04:18:09.353Z,100532.44
2023-12-05T04:20:36.918Z,100532.13
2023-12-05T04:23:04.431Z,100534.59
2023-12-05T04:25:31.913Z,100537.06
2023-12-05T04:28:00.705Z,100541.22
2023-12-05T04:30:28.186Z,100545.19
2023-12-05T04:32:55.751Z,100542.78
2023-12-05T04:35:23.271Z,100541.69
2023-12-05T04:37:50.763Z,100544.19
2023-12-05T04:40:20.210Z,100536.50
2023-12-05T04:42:48.086Z,100537.81
2023-12-05T04:45:17.358Z,100540.41
2023-12-05T04:47:45.369Z,100539.44
2023-12-05T04:50:12.857Z,100538.13
2023-12-05T04:52:40.349Z,100544.09
2023-12-05T04:55:08.409Z,100527.41
2023-12-05T04:57:35.907Z,100529.69
2023-12-05T05:00:04.344Z,100525.63
2023-12-05T05:02:33.153Z,100521.88
2023-12-05T05:05:01.136Z,100525.13
2023-12-05T05:07:28.719Z,100519.47
2023-12-05T05:09:56.200Z,100521.66
2023-12-05T05:12:23.720Z,100526.44
2023-12-05T05:14:51.148Z,100520.88
2023-12-05T05:17:18.566Z,100522.81
2023-12-05T05:19:47.406Z,100521.72
2023-12-05T05:22:15.174Z,100515.63
2023-12-05T05:24:42.850Z,100513.94
2023-12-05T05:27:10.496Z,100521.16
2023-12-05T05:29:37.969Z,100519.16
2023-12-05T05:32:06.312Z,100518.19
2023-12-05T05:34:33.953Z,100519.50
2023-12-05T05:37:02.898Z,100518.19
2023-12-05T05:39:30.439Z,100528.47
2023-12-05T05:41:57.946Z,100526.38
2023-12-05T05:44:25.903Z,100529.63
2023-12-05T05:46:53.381Z,100530.22
2023-12-05T05:49:20.984Z,100534.19
2023-12-05T05:51:48.549Z,100529.72
2023-12-05T05:54:17.466Z,100533.06
2023-12-05T05:56:44.897Z,100530.38
2023-12-05T05:59:12.375Z,100535.84
2023-12-05T06:01:39.843Z,100536.59
2023-12-05T06:04:07.377Z,100538.03
2023-12-05T06:06:34.926Z,100540.88
2023-12-05T06:09:02.467Z,100541.09
2023-12-05T06:11:31.337Z,100528.94
2023-12-05T06:13:58.863Z,100536.97
2023-12-05T06:16:26.752Z,100541.84
2023-12-05T06:18:55.345Z,100546.63
2023-12-05T06:21:22.955Z,100543.38
2023-12-05T06:23:50.430Z,100542.97
2023-12-05T06:26:19.597Z,100534.13
2023-12-05T06:28:48.382Z,100537.50
2023-12-05T06:31:17.496Z,100539.16
2023-12-05T06:33:46.241Z,100532.66
2023-12-05T06:36:15.104Z,100534.59
2023-12-05T06:38:42.562Z,100535.31
2023-12-05T06:41:10.179Z,100537.44
2023-12-05T06:43:37.801Z,100540.44
2023-12-05T06:46:06.917Z,100534.97
2023-12-05T06:48:34.471Z,100545.06
2023-12-05T06:51:02.062Z,100540.16
2023-12-05T06:53:29.719Z,100540.50
2023-12-05T06:55:58.193Z,100535.47
2023-12-05T06:58:26.297Z,100528.00
2023-12-05T07:00:53.820Z,100532.22
2023-12-05T07:03:23.436Z,100534.94
2023-12-05T07:05:51.045Z,100531.97
2023-12-05T07:08:19.788Z,100523.31
2023-12-05T07:10:47.221Z,100517.16
2023-12-05T07:13:14.817Z,100521.28
2023-12-05T07:15:42.306Z,100520.19
2023-12-05T07:18:10.278Z,100526.13
2023-12-05T07:20:39.113Z,100524.25
2023-12-05T07:23:06.695Z,100527.78
2023-12-05T07:25:34.109Z,100530.59
2023-12-05T07:28:01.540Z,100531.75
2023-12-05T07:30:28.998Z,100524.19
2023-12-05T07:32:56.522Z,100526.88
2023-12-05T07:35:24.282Z,100520.41
2023-12-05T07:37:53.146Z,100525.69
2023-12-05T07:40:20.938Z,100521.44
2023-12-05T07:42:48.431Z,100526.66
2023-12-05T07:45:16.031Z,100529.16
2023-12-05T07:47:44.454Z,100535.63
2023-12-05T07:50:14.253Z,100530.03
2023-12-05T07:52:42.843Z,100547.06
2023-12-05T07:55:11.755Z,100536.50
2023-12-05T07:57:39.235Z,100541.88
2023-12-05T08:00:15.625Z,100538.09
2023-12-05T08:02:43.128Z,100539.50
2023-12-05T08:05:11.466Z,100536.25
2023-12-05T08:07:39.220Z,100540.25
2023-12-05T08:10:07.693Z,100536.41
2023-12-05T08:12:36.928Z,100542.38
2023-12-05T08:15:05.592Z,100533.19
2023-12-05T08:17:33.082Z,100539.50
2023-12-05T08:20:00.596Z,100533.25
2023-12-05T08:22:28.066Z,100534.47
2023-12-05T08:24:55.588Z,100541.53
2023-12-05T08:27:23.629Z,100537.19
2023-12-05T08:29:52.429Z,100536.50
2023-12-05T08:32:19.867Z,100536.50
2023-12-05T08:34:47.465Z,100536.03
2023-12-05T08:37:15.092Z,100539.69
2023-12-05T08:39:42.779Z,100536.19
2023-12-05T08:42:10.242Z,100542.38
2023-12-05T08:44:37.656Z,100544.78
2023-12-05T08:47:06.768Z,100540.81
2023-12-05T08:49:34.355Z,100549.41
2023-12-05T08:52:01.854Z,100554.91
2023-12-05T08:54:29.321Z,100556.81
2023-12-05T08:56:57.307Z,100542.41
2023-12-05T08:59:24.811Z,100555.50
2023-12-05T09:01:52.369Z,100561.03
2023-12-05T09:04:21.325Z,100554.19
2023-12-05T09:06:49.199Z,100553.69
2023-12-05T09:09:17.876Z,100546.66
2023-12-05T09:11:46.618Z,100551.00
2023-12-05T09:14:14.129Z,100562.22
2023-12-05T09:16:42.052Z,100558.69
2023-12-05T09:19:09.708Z,100550.53
2023-12-05T09:21:38.696Z,100549.56
2023-12-05T09:24:09.319Z,100534.69
2023-12-05T09:26:36.785Z,100549.03
2023-12-05T09:29:05.076Z,100539.88
2023-12-05T09:31:33.005Z,100544.78
2023-12-05T09:34:00.580Z,100556.41
2023-12-05T09:36:28.104Z,100554.75
2023-12-05T09:38:57.538Z,100557.50
2023-12-05T09:41:25.322Z,100552.41
2023-12-05T09:43:53.291Z,100553.34
2023-12-05T09:46:22.601Z,100540.50
2023-12-05T09:48:52.361Z,100546.72
2023-12-05T09:51:20.127Z,100544.22
2023-12-05T09:53:50.072Z,100528.19
2023-12-05T09:56:20.247Z,100523.00
2023-12-05T09:58:48.266Z,100532.06
2023-12-05T10:01:17.325Z,100526.63
2023-12-05T10:03:46.357Z,100534.09
2023-12-05T10:06:19.860Z,100532.25
2023-12-05T10:08:48.462Z,100540.16
2023-12-05T10:11:16.081Z,100531.75
2023-12-05T10:13:45.704Z,100528.66
2023-12-05T10:16:13.493Z,100527.66
2023-12-05T10:18:42.287Z,100534.03
2023-12-05T10:21:09.854Z,100521.06
2023-12-05T10:23:37.498Z,100509.06
2023-12-05T10:26:05.316Z,100506.72
2023-12-05T10:28:32.773Z,100507.41
2023-12-05T10:31:14.883Z,100498.38
2023-12-05T10:33:42.555Z,100498.69
2023-12-05T10:36:13.541Z,100506.13
2023-12-05T10:38:44.659Z,100493.00
2023-12-05T10:41:12.419Z,100498.97
2023-12-05T10:43:49.490Z,100490.59
2023-12-05T10:46:18.462Z,100485.84
2023-12-05T10:48:46.298Z,100484.09
2023-12-05T10:51:13.005Z,100481.38
2023-12-05T10:53:41.115Z,100476.41
2023-12-05T10:56:16.364Z,100478.28
2023-12-05T10:58:44.488Z,100473.56
2023-12-05T11:01:13.023Z,100465.41
2023-12-05T11:03:42.975Z,100474.13
2023-12-05T11:06:10.900Z,100466.66
2023-12-05T11:08:38.557Z,100472.16
2023-12-05T11:11:06.971Z,100467.50
2023-12-05T11:13:36.553Z,100471.13
2023-12-05T11:16:11.170Z,100455.84
2023-12-05T11:18:41.156Z,100466.22
2023-12-05T11:21:28.306Z,100453.22
2023-12-05T11:24:06.765Z,100450.25
2023-12-05T11:26:55.750Z,100459.81
2023-12-05T11:29:55.393Z,100450.25
2023-12-05T11:32:32.648Z,100455.25
2023-12-05T11:35:10.635Z,100450.13
2023-12-05T11:37:53.888Z,100449.38
2023-12-05T11:40:21.426Z,100447.97
2023-12-05T11:43:08.701Z,100460.75
2023-12-05T11:45:40.094Z,100455.34
2023-12-05T11:48:10.651Z,100461.53
2023-12-05T11:50:44.342Z,100457.19
2023-12-05T11:53:15.371Z,100449.06
2023-12-05T11:55:46.928Z,100451.59
2023-12-05T11:58:28.208Z,100453.31
2023-12-05T12:01:06.983Z,100450.03
2023-12-05T12:03:53.167Z,100454.22
2023-12-05T12:06:22.224Z,100448.22
2023-12-05T12:08:54.563Z,100450.50
2023-12-05T12:11:23.457Z,100449.63
2023-12-05T12:13:51.698Z,100449.72
2023-12-05T12:16:20.600Z,100456.09
2023-12-05T12:18:53.808Z,100463.88
2023-12-05T12:21:24.329Z,100453.66
2023-12-05T12:23:59.264Z,100449.34
2023-12-05T12:26:27.405Z,100447.06
2023-12-05T12:28:54.949Z,100438.97
2023-12-05T12:31:26.996Z,100450.88
2023-12-05T12:33:55.110Z,100450.84
2023-12-05T12:36:23.631Z,100451.31
2023-12-05T12:38:51.577Z,100447.00
2023-12-05T12:41:21.348Z,100445.47
2023-12-05T12:43:48.858Z,100461.28
2023-12-05T12:46:16.632Z,100453.53
2023-12-05T12:48:44.391Z,100454.13
2023-12-05T12:51:12.463Z,100445.88
2023-12-05T12:53:40.011Z,100452.66
2023-12-05T12:56:10.986Z,100450.03
2023-12-05T12:58:41.109Z,100444.72
2023-12-05T13:01:11.534Z,100444.31
2023-12-05T13:03:39.335Z,100446.78
2023-12-05T13:06:07.190Z,100434.50
2023-12-05T13:08:34.783Z,100441.19
2023-12-05T13:11:02.347Z,100447.06
2023-12-05T13:13:30.199Z,100447.13
2023-12-05T13:15:59.609Z,100442.94
2023-12-05T13:18:27.244Z,100447.47
2023-12-05T13:20:56.352Z,100449.03
2023-12-05T13:23:24.675Z,100453.50
2023-12-05T13:25:52.465Z,100449.09
2023-12-05T13:28:20.094Z,100453.31
2023-12-05T13:30:47.641Z,100460.91
2023-12-05T13:33:17.021Z,100449.72
2023-12-05T13:35:45.015Z,100444.84
2023-12-05T13:38:12.866Z,100452.34
2023-12-05T13:40:40.416Z,100451.84
2023-12-05T13:43:08.142Z,100456.69
2023-12-05T13:45:36.122Z,100452.44
2023-12-05T13:48:04.951Z,100459.75
2023-12-05T13:50:33.877Z,100469.03
2023-12-05T13:53:01.438Z,100465.41
2023-12-05T13:55:29.092Z,100466.88
2023-12-05T13:57:56.669Z,100459.94
2023-12-05T14:00:24.947Z,100463.72
2023-12-05T14:02:52.565Z,100464.81
2023-12-05T14:05:20.288Z,100463.56
2023-12-05T14:07:49.198Z,100466.81
2023-12-05T14:10:17.094Z,100463.97
2023-12-05T14:12:44.574Z,100470.78
2023-12-05T14:15:12.571Z,100477.00
2023-12-05T14:17:40.042Z,100473.16
2023-12-05T14:20:11.486Z,100466.09
2023-12-05T14:22:39.718Z,100469.34
2023-12-05T14:25:10.297Z,100477.50
2023-12-05T14:27:37.914Z,100474.59
2023-12-05T14:30:06.355Z,100475.88
2023-12-05T14:32:33.978Z,100467.81
2023-12-05T14:35:01.598Z,100468.47
2023-12-05T14:37:29.133Z,100471.25
2023-12-05T14:39:57.454Z,100467.75
2023-12-05T14:42:26.484Z,100470.78
2023-12-05T14:44:53.948Z,100466.19
2023-12-05T14:47:21.649Z,100468.16
2023-12-05T14:49:53.994Z,100478.38
2023-12-05T14:52:21.585Z,100473.00
2023-12-05T14:54:49.093Z,100482.91
2023-12-05T14:57:16.988Z,100476.22
2023-12-05T14:59:46.127Z,100489.78
2023-12-05T15:02:13.629Z,100487.50
2023-12-05T15:04:41.561Z,100491.88
2023-12-05T15:07:09.150Z,100485.25
2023-12-05T15:09:36.996Z,100491.28
2023-12-05T15:12:05.393Z,100498.84
2023-12-05T15:14:32.829Z,100505.19
2023-12-05T15:17:04.908Z,100500.50
2023-12-05T15:19:32.478Z,100502.56
2023-12-05T15:22:00.129Z,100502.31
2023-12-05T15:24:27.724Z,100503.19
2023-12-05T15:26:55.193Z,100500.34
2023-12-05T15:29:28.617Z,100506.56
2023-12-05T15:32:05.356Z,100504.03
2023-12-05T15:34:34.943Z,100510.63
2023-12-05T15:37:03.053Z,100504.78
2023-12-05T15:39:35.021Z,100497.66
2023-12-05T15:42:04.562Z,100499.03
2023-12-05T15:44:33.605Z,100501.00
2023-12-05T15:47:01.152Z,100502.34
2023-12-05T15:49:29.965Z,100510.63
2023-12-05T15:51:57.584Z,100513.28
2023-12-05T15:54:25.135Z,100506.53
2023-12-05T15:56:53.076Z,100495.19
2023-12-05T15:59:20.905Z,100501.00
2023-12-05T16:01:48.620Z,100498.63
2023-12-05T16:04:16.111Z,100506.22
2023-12-05T16:06:45.889Z,100510.56
2023-12-05T16:09:21.140Z,100506.44
2023-12-05T16:11:52.811Z,100509.06
2023-12-05T16:14:22.569Z,100507.28
2023-12-05T16:16:50.667Z,100507.94
2023-12-05T16:19:18.172Z,100506.59
2023-12-05T16:21:47.038Z,100504.53
2023-12-05T16:24:14.551Z,100504.03
2023-12-05T16:26:42.956Z,100508.53
2023-12-05T16:29:10.445Z,100512.94
2023-12-05T16:31:37.892Z,100513.31
2023-12-05T16:34:05.625Z,100510.44
2023-12-05T16:36:33.172Z,100506.38
2023-12-05T16:39:01.967Z,100508.69
2023-12-05T16:41:33.865Z,100514.69
2023-12-05T16:44:01.470Z,100507.59
2023-12-05T16:46:30.120Z,100508.50
2023-12-05T16:48:57.719Z,100519.66
2023-12-05T16:51:27.064Z,100528.16
2023-12-05T16:53:54.661Z,100522.53
2023-12-05T16:56:23.436Z,100535.84
2023-12-05T16:58:50.889Z,100535.13
2023-12-05T17:01:18.427Z,100530.66
2023-12-05T17:03:46.056Z,100531.84
2023-12-05T17:06:13.615Z,100535.84
2023-12-05T17:08:41.117Z,100532.63
2023-12-05T17:11:08.551Z,100534.28
2023-12-05T17:13:37.335Z,100545.13
2023-12-05T17:16:05.555Z,100541.97
2023-12-05T17:18:33.031Z,100536.38
2023-12-05T17:21:00.927Z,100537.94
2023-12-05T17:23:30.479Z,100534.09
2023-12-05T17:25:57.953Z,100542.72
2023-12-05T17:28:25.387Z,100540.44
2023-12-05T17:30:54.203Z,100542.50
2023-12-05T17:33:21.862Z,100537.03
2023-12-05T17:35:49.425Z,100551.16
2023-12-05T17:38:16.892Z,100537.91
2023-12-05T17:40:44.334Z,100542.44
2023-12-05T17:43:11.851Z,100538.53
2023-12-05T17:45:39.523Z,100538.13
2023-12-05T17:48:08.740Z,100538.28
2023-12-05T17:50:36.213Z,100550.50
2023-12-05T17:53:03.654Z,100533.00
2023-12-05T17:55:31.241Z,100547.91
2023-12-05T17:57:58.835Z,100544.28
2023-12-05T18:00:26.763Z,100534.59
2023-12-05T18:02:55.277Z,100543.63
2023-12-05T18:05:24.130Z,100539.13
2023-12-05T18:07:57.853Z,100539.56
2023-12-05T18:10:27.444Z,100538.84
2023-12-05T18:12:55.055Z,100540.91
2023-12-05T18:15:22.585Z,100541.22
2023-12-05T18:17:51.187Z,100549.72
2023-12-05T18:20:18.735Z,100550.97
2023-12-05T18:22:47.781Z,100552.53
2023-12-05T18:25:15.960Z,100546.47
2023-12-05T18:27:44.177Z,100546.63
2023-12-05T18:30:12.077Z,100551.19
2023-12-05T18:32:39.743Z,100546.78
2023-12-05T18:35:07.738Z,100543.72
2023-12-05T18:37:37.258Z,100547.44
2023-12-05T18:40:07.592Z,100548.53
2023-12-05T18:42:35.333Z,100548.59
2023-12-05T18:45:02.833Z,100548.47
2023-12-05T18:47:30.336Z,100546.19
2023-12-05T18:49:58.102Z,100549.47
2023-12-05T18:52:25.748Z,100560.88
2023-12-05T18:54:53.292Z,100556.16
2023-12-05T18:57:22.259Z,100560.69
2023-12-05T18:59:49.789Z,100556.31
2023-12-05T19:02:17.232Z,100558.94
2023-12-05T19:04:44.717Z,100563.09
2023-12-05T19:07:14.029Z,100563.97
2023-12-05T19:09:43.052Z,100558.53
2023-12-05T19:12:10.790Z,100564.19
2023-12-05T19:14:39.575Z,100558.00
2023-12-05T19:17:07.143Z,100559.47
2023-12-05T19:19:34.765Z,100562.81
2023-12-05T19:22:04.312Z,100562.88
2023-12-05T19:24:31.990Z,100558.97
2023-12-05T19:27:00.879Z,100572.22
2023-12-05T19:29:28.350Z,100564.16
2023-12-05T19:31:57.105Z,100565.03
2023-12-05T19:34:35.102Z,100564.94
2023-12-05T19:37:08.180Z,100561.81
2023-12-05T19:39:36.003Z,100560.69
2023-12-05T19:42:03.984Z,100563.63
2023-12-05T19:44:31.525Z,100568.91
2023-12-05T19:47:00.334Z,100566.53
2023-12-05T19:49:27.966Z,100565.19
2023-12-05T19:51:55.718Z,100568.03
2023-12-05T19:54:23.383Z,100560.91
2023-12-05T19:56:51.051Z,100568.19
2023-12-05T19:59:18.472Z,100565.41
2023-12-05T20:01:45.992Z,100568.59
2023-12-05T20:04:14.916Z,100561.38
2023-12-05T20:06:42.686Z,100565.66
2023-12-05T20:09:11.174Z,100566.38
2023-12-05T20:11:38.813Z,100570.28
2023-12-05T20:14:06.260Z,100565.44
2023-12-05T20:16:33.728Z,100574.38
2023-12-05T20:19:01.584Z,100572.31
2023-12-05T20:21:30.676Z,100573.19
2023-12-05T20:23:59.115Z,100585.31
2023-12-05T20:26:26.545Z,100578.34
2023-12-05T20:28:54.061Z,100569.44
2023-12-05T20:31:21.601Z,100577.16
2023-12-05T20:33:49.198Z,100580.84
2023-12-05T20:36:16.674Z,100583.28
2023-12-05T20:38:45.547Z,100584.91
2023-12-05T20:41:15.593Z,100585.41
2023-12-05T20:43:45.050Z,100593.31
2023-12-05T20:46:14.028Z,100594.34
2023-12-05T20:48:44.096Z,100594.75
2023-12-05T20:51:12.793Z,100584.94
2023-12-05T20:53:40.362Z,100574.94
2023-12-05T20:56:10.452Z,100576.09
2023-12-05T20:58:37.921Z,100575.88
2023-12-05T21:01:06.777Z,100579.94
2023-12-05T21:03:34.236Z,100578.81
2023-12-05T21:06:01.920Z,100589.03
2023-12-05T21:09:08.934Z,100589.88
2023-12-05T21:11:18.118Z,100598.34
2023-12-05T21:13:45.581Z,100599.41
2023-12-05T21:16:13.138Z,100592.38
2023-12-05T21:18:40.759Z,100588.63
2023-12-05T21:21:08.757Z,100582.44
2023-12-05T21:23:37.552Z,100583.13
2023-12-05T21:26:05.249Z,100593.22
2023-12-05T21:28:34.023Z,100593.06
2023-12-05T21:31:01.498Z,100596.19
2023-12-05T21:33:28.991Z,100596.34
2023-12-05T21:35:56.433Z,100599.25
2023-12-05T21:38:23.895Z,100589.28
2023-12-05T21:40:51.473Z,100596.81
2023-12-05T21:43:19.008Z,100601.31
2023-12-05T21:45:47.788Z,100598.38
2023-12-05T21:48:16.425Z,100601.84
2023-12-05T21:50:44.270Z,100588.38
2023-12-05T21:53:11.710Z,100594.16
2023-12-05T21:55:39.178Z,100591.78
2023-12-05T21:58:06.676Z,100596.03
2023-12-05T22:00:34.178Z,100604.00
2023-12-05T22:03:03.065Z,100605.34
2023-12-05T22:05:30.501Z,100593.59
2023-12-05T22:07:58.059Z,100593.78
2023-12-05T22:10:25.613Z,100602.72
2023-12-05T22:12:53.095Z,100607.84
2023-12-05T22:15:20.536Z,100598.78
2023-12-05T22:17:48.105Z,100596.34
2023-12-05T22:20:17.010Z,100593.94
2023-12-05T22:22:44.518Z,100595.31
2023-12-05T22:25:12.025Z,100612.59
2023-12-05T22:27:39.648Z,100613.50
2023-12-05T22:30:08.455Z,100605.19
2023-12-05T22:32:36.081Z,100602.59
2023-12-05T22:35:03.670Z,100602.75
2023-12-05T22:37:32.524Z,100601.88
2023-12-05T22:40:00.039Z,100598.13
2023-12-05T22:42:27.791Z,100608.34
2023-12-05T22:44:55.216Z,100604.72
2023-12-05T22:47:22.889Z,100603.66
2023-12-05T22:49:50.525Z,100595.84
2023-12-05T22:52:18.023Z,100600.47
2023-12-05T22:54:46.788Z,100614.34
2023-12-05T22:57:14.944Z,100601.09
2023-12-05T22:59:42.620Z,100605.34
2023-12-05T23:02:10.351Z,100602.56
2023-12-05T23:04:37.797Z,100609.34
2023-12-05T23:07:05.478Z,100597.03
2023-12-05T23:09:33.078Z,100596.56
2023-12-05T23:12:01.865Z,100609.97
2023-12-05T23:14:29.328Z,100597.13
2023-12-05T23:16:56.745Z,100604.94
2023-12-05T23:19:24.520Z,100610.50
2023-12-05T23:21:52.239Z,100606.53
2023-12-05T23:24:19.791Z,100609.22
2023-12-05T23:26:47.237Z,100598.69
2023-12-05T23:29:16.146Z,100594.25
2023-12-05T23:31:44.292Z,100597.47
2023-12-05T23:34:11.965Z,100598.59
2023-12-05T23:36:39.625Z,100599.16
2023-12-05T23:39:07.083Z,100596.06
2023-12-05T23:41:34.513Z,100597.31
2023-12-05T23:44:01.992Z,100598.09
2023-12-05T23:46:30.836Z,100603.53
2023-12-05T23:48:58.403Z,100608.44
2023-12-05T23:51:25.863Z,100600.66
2023-12-05T23:53:55.262Z,100609.84
2023-12-05T23:56:23.180Z,100598.59
2023-12-05T23:58:51.250Z,100598.09
